createdAt,value
2018-12-07T00:00:24.891Z,7.53
2018-12-07T00:02:58.678Z,7.65
2018-12-07T00:05:33.229Z,8.35
2018-12-07T00:08:07.072Z,8.53
2018-12-07T00:10:40.893Z,7.60
2018-12-07T00:13:15.509Z,8.98
2018-12-07T00:15:49.325Z,8.50
2018-12-07T00:18:23.266Z,8.13
2018-12-07T00:20:57.774Z,8.05
2018-12-07T00:23:31.526Z,7.33
2018-12-07T00:26:06.065Z,8.27
2018-12-07T00:28:39.866Z,7.43
2018-12-07T00:31:13.623Z,7.45
2018-12-07T00:33:47.366Z,8.03
2018-12-07T00:36:21.226Z,8.00
2018-12-07T00:38:55.026Z,8.35
2018-12-07T00:41:28.866Z,6.72
2018-12-07T00:44:02.645Z,7.80
2018-12-07T00:46:36.439Z,6.80
2018-12-07T00:49:10.256Z,8.38
2018-12-07T00:51:44.008Z,6.47
2018-12-07T00:54:17.826Z,7.33
2018-12-07T00:56:52.318Z,6.23
2018-12-07T00:59:26.018Z,6.12
2018-12-07T01:01:59.840Z,6.15
2018-12-07T01:04:34.438Z,6.95
2018-12-07T01:07:08.987Z,5.67
2018-12-07T01:09:43.532Z,5.12
2018-12-07T01:12:17.337Z,6.25
2018-12-07T01:14:51.098Z,5.73
2018-12-07T01:17:24.973Z,5.53
2018-12-07T01:19:58.787Z,5.72
2018-12-07T01:22:32.526Z,5.08
2018-12-07T01:25:07.086Z,6.20
2018-12-07T01:27:41.197Z,5.42
2018-12-07T01:30:15.413Z,5.77
2018-12-07T01:32:49.247Z,5.27
2018-12-07T01:35:23.079Z,5.57
2018-12-07T01:37:57.670Z,5.30
2018-12-07T01:40:31.546Z,5.50
2018-12-07T01:43:06.117Z,5.60
2018-12-07T01:45:39.913Z,6.03
2018-12-07T01:48:14.029Z,6.37
2018-12-07T01:50:47.861Z,5.50
2018-12-07T01:53:21.683Z,5.53
2018-12-07T01:55:55.465Z,4.90
2018-12-07T01:58:29.290Z,5.60
2018-12-07T02:01:03.108Z,4.72
2018-12-07T02:03:38.424Z,3.93
2018-12-07T02:06:12.192Z,4.03
2018-12-07T02:08:46.113Z,4.33
2018-12-07T02:11:19.864Z,4.17
2018-12-07T02:13:53.695Z,3.75
2018-12-07T02:16:28.213Z,3.05
2018-12-07T02:19:02.785Z,3.22
2018-12-07T02:21:36.540Z,3.63
2018-12-07T02:24:11.130Z,4.00
2018-12-07T02:26:44.977Z,4.20
2018-12-07T02:29:19.558Z,4.50
2018-12-07T02:31:53.365Z,4.00
2018-12-07T02:34:27.203Z,3.60
2018-12-07T02:37:01.355Z,4.47
2018-12-07T02:39:35.237Z,4.30
2018-12-07T02:42:09.813Z,4.28
2018-12-07T02:44:43.657Z,5.08
2018-12-07T02:47:17.411Z,5.10
2018-12-07T02:49:51.229Z,4.45
2018-12-07T02:52:25.233Z,3.60
2018-12-07T02:54:59.028Z,2.85
2018-12-07T02:57:32.800Z,3.40
2018-12-07T03:00:09.175Z,4.03
2018-12-07T03:02:43.719Z,4.05
2018-12-07T03:05:17.496Z,3.70
2018-12-07T03:07:51.297Z,2.92
2018-12-07T03:10:25.529Z,3.25
2018-12-07T03:13:00.066Z,3.30
2018-12-07T03:15:33.873Z,3.45
2018-12-07T03:20:54.232Z,3.73
2018-12-07T03:23:28.003Z,3.08
2018-12-07T03:26:01.791Z,3.80
2018-12-07T03:28:36.356Z,4.05
2018-12-07T03:31:10.226Z,3.70
2018-12-07T03:33:44.120Z,4.20
2018-12-07T03:36:18.247Z,3.75
2018-12-07T03:38:52.062Z,4.33
2018-12-07T03:41:25.922Z,4.08
2018-12-07T03:43:59.726Z,4.10
2018-12-07T03:46:33.500Z,3.75
2018-12-07T03:49:07.409Z,3.47
2018-12-07T03:51:41.213Z,4.22
2018-12-07T03:54:15.017Z,4.00
2018-12-07T03:56:48.788Z,3.13
2018-12-07T03:59:23.320Z,4.40
2018-12-07T04:01:57.118Z,3.03
2018-12-07T04:04:32.021Z,3.65
2018-12-07T04:07:05.817Z,3.35
2018-12-07T04:12:21.804Z,3.58
2018-12-07T04:14:55.563Z,3.63
2018-12-07T04:17:30.116Z,3.70
2018-12-07T04:20:03.930Z,3.37
2018-12-07T04:22:37.699Z,3.17
2018-12-07T04:27:51.816Z,3.17
2018-12-07T04:30:30.043Z,3.42
2018-12-07T04:33:04.146Z,3.45
2018-12-07T04:35:37.957Z,3.70
2018-12-07T04:38:11.742Z,3.80
2018-12-07T04:40:45.588Z,3.70
2018-12-07T04:43:19.388Z,3.40
2018-12-07T04:45:53.236Z,3.15
2018-12-07T04:48:26.987Z,2.87
2018-12-07T04:51:00.795Z,3.65
2018-12-07T04:53:34.845Z,3.75
2018-12-07T04:56:09.677Z,3.93
2018-12-07T04:58:44.269Z,3.90
2018-12-07T05:01:18.089Z,4.47
2018-12-07T05:03:52.150Z,3.37
2018-12-07T05:06:25.955Z,4.13
2018-12-07T05:09:00.078Z,5.10
2018-12-07T05:11:33.878Z,4.53
2018-12-07T05:14:07.670Z,5.10
2018-12-07T05:16:41.479Z,4.10
2018-12-07T05:19:15.589Z,4.33
2018-12-07T05:21:50.601Z,4.53
2018-12-07T05:24:24.230Z,5.67
2018-12-07T05:26:58.009Z,5.63
2018-12-07T05:29:32.590Z,5.65
2018-12-07T05:32:06.434Z,6.40
2018-12-07T05:34:40.229Z,6.42
2018-12-07T05:37:14.047Z,6.10
2018-12-07T05:39:48.562Z,6.90
2018-12-07T05:42:22.444Z,6.47
2018-12-07T05:44:56.178Z,7.00
2018-12-07T05:47:30.077Z,7.23
2018-12-07T05:50:03.863Z,6.20
2018-12-07T05:52:37.658Z,6.20
2018-12-07T05:55:11.374Z,6.80
2018-12-07T05:57:45.239Z,7.20
2018-12-07T06:00:19.839Z,6.30
2018-12-07T06:02:53.700Z,6.23
2018-12-07T06:05:27.465Z,5.67
2018-12-07T06:08:02.275Z,6.03
2018-12-07T06:10:36.054Z,5.97
2018-12-07T06:13:09.869Z,5.00
2018-12-07T06:15:43.678Z,5.93
2018-12-07T06:18:17.876Z,5.15
2018-12-07T06:20:51.678Z,4.87
2018-12-07T06:23:26.315Z,5.35
2018-12-07T06:26:00.155Z,5.03
2018-12-07T06:28:34.729Z,4.70
2018-12-07T06:31:08.524Z,4.62
2018-12-07T06:33:42.466Z,4.95
2018-12-07T06:36:16.486Z,4.40
2018-12-07T06:38:50.547Z,3.37
2018-12-07T06:41:24.334Z,3.98
2018-12-07T06:43:58.881Z,3.43
2018-12-07T06:46:32.628Z,2.60
2018-12-07T06:49:16.177Z,3.27
2018-12-07T06:51:49.952Z,2.85
2018-12-07T06:54:23.700Z,2.70
2018-12-07T06:56:57.517Z,3.10
2018-12-07T06:59:32.085Z,3.13
2018-12-07T07:02:05.997Z,3.07
2018-12-07T07:04:39.849Z,2.65
2018-12-07T07:07:14.496Z,3.27
2018-12-07T07:09:49.011Z,3.95
2018-12-07T07:12:23.929Z,3.30
2018-12-07T07:14:58.494Z,3.65
2018-12-07T07:17:32.461Z,4.60
2018-12-07T07:20:07.497Z,4.05
2018-12-07T07:25:23.813Z,4.03
2018-12-07T07:27:57.605Z,4.57
2018-12-07T07:30:31.421Z,4.43
2018-12-07T07:33:05.239Z,4.33
2018-12-07T07:35:39.754Z,4.07
2018-12-07T07:38:13.585Z,4.77
2018-12-07T07:40:48.410Z,4.30
2018-12-07T07:43:22.916Z,4.17
2018-12-07T07:46:03.152Z,4.80
2018-12-07T07:48:36.923Z,5.15
2018-12-07T07:51:10.989Z,5.53
2018-12-07T07:53:45.500Z,5.20
2018-12-07T07:56:19.304Z,5.12
2018-12-07T07:58:53.126Z,5.70
2018-12-07T08:01:27.664Z,6.20
2018-12-07T08:04:02.426Z,5.30
2018-12-07T08:06:36.194Z,6.03
2018-12-07T08:09:10.926Z,5.27
2018-12-07T08:11:44.784Z,5.90
2018-12-07T08:14:18.586Z,5.20
2018-12-07T08:36:34.277Z,3.50
2018-12-07T08:47:05.527Z,4.27
2018-12-07T08:52:34.512Z,5.40
2018-12-07T08:55:08.334Z,4.97
2018-12-07T08:57:42.097Z,4.20
2018-12-07T09:00:15.884Z,4.55
2018-12-07T09:02:50.472Z,4.25
2018-12-07T09:05:24.279Z,4.17
2018-12-07T09:07:58.114Z,4.30
2018-12-07T09:10:32.681Z,4.40
2018-12-07T09:13:06.469Z,3.43
2018-12-07T09:15:41.394Z,4.20
2018-12-07T09:18:15.849Z,4.00
2018-12-07T09:20:53.922Z,3.67
2018-12-07T09:23:24.136Z,3.95
2018-12-07T09:28:41.597Z,3.60
2018-12-07T09:31:15.446Z,3.90
2018-12-07T09:33:49.222Z,3.95
2018-12-07T09:36:23.017Z,3.70
2018-12-07T09:38:56.842Z,4.50
2018-12-07T09:41:30.645Z,4.25
2018-12-07T09:44:05.235Z,4.20
2018-12-07T09:46:40.058Z,4.20
2018-12-07T09:49:14.615Z,4.17
2018-12-07T09:54:29.513Z,3.50
2018-12-07T09:57:03.253Z,4.22
2018-12-07T09:59:37.039Z,4.37
2018-12-07T10:04:52.191Z,3.83
2018-12-07T10:07:26.297Z,4.08
2018-12-07T10:10:00.826Z,3.90
2018-12-07T10:12:35.344Z,4.17
2018-12-07T10:15:10.237Z,4.17
2018-12-07T10:17:44.054Z,4.93
2018-12-07T10:20:17.866Z,4.23
2018-12-07T10:22:51.634Z,4.23
2018-12-07T10:25:25.424Z,4.07
2018-12-07T10:27:59.833Z,4.20
2018-12-07T10:30:33.581Z,4.47
2018-12-07T10:33:08.095Z,3.60
2018-12-07T10:35:41.857Z,2.92
2018-12-07T10:38:16.400Z,3.77
2018-12-07T10:40:50.177Z,4.10
2018-12-07T10:43:24.968Z,4.20
2018-12-07T10:48:38.427Z,3.67
2018-12-07T10:51:12.177Z,3.98
2018-12-07T10:56:28.214Z,3.67
2018-12-07T10:59:02.006Z,4.10
2018-12-07T11:01:54.426Z,3.05
2018-12-07T11:07:46.968Z,3.87
2018-12-07T11:10:39.316Z,2.80
2018-12-07T11:13:32.456Z,2.92
2018-12-07T11:19:27.337Z,3.00
2018-12-07T11:22:20.078Z,3.20
2018-12-07T11:25:11.654Z,2.75
2018-12-07T11:28:04.018Z,2.90
2018-12-07T11:33:50.725Z,2.80
2018-12-07T11:36:25.247Z,2.85
2018-12-07T11:41:38.669Z,2.80
2018-12-07T11:44:12.421Z,2.33
2018-12-07T11:46:46.209Z,2.77
2018-12-07T11:52:01.866Z,1.70
2018-12-07T11:54:36.384Z,2.00
2018-12-07T11:57:10.178Z,1.50
2018-12-07T11:59:44.681Z,1.80
2018-12-07T12:02:26.166Z,1.82
2018-12-07T12:04:53.074Z,1.35
2018-12-07T12:07:27.661Z,1.57
2018-12-07T12:10:01.491Z,1.67
2018-12-07T12:12:35.344Z,1.52
2018-12-07T12:17:52.256Z,1.60
2018-12-07T12:20:26.045Z,1.40
2018-12-07T12:25:39.706Z,1.60
2018-12-07T12:28:13.441Z,1.20
2018-12-07T12:30:47.482Z,1.20
2018-12-07T12:36:00.787Z,1.20
2018-12-07T12:38:34.582Z,1.37
2018-12-07T12:41:08.412Z,1.27
2018-12-07T12:46:24.455Z,1.25
2018-12-07T12:48:58.237Z,1.50
2018-12-07T12:51:31.983Z,1.37
2018-12-07T12:54:05.791Z,1.12
2018-12-07T12:56:39.643Z,1.10
2018-12-07T12:59:14.956Z,1.17
2018-12-07T13:01:48.794Z,1.35
2018-12-07T13:04:22.625Z,1.20
2018-12-07T13:06:56.788Z,1.32
2018-12-07T13:09:30.625Z,1.07
2018-12-07T13:12:05.140Z,1.45
2018-12-07T13:14:38.859Z,1.20
2018-12-07T13:17:12.922Z,1.42
2018-12-07T13:19:46.733Z,0.80
2018-12-07T13:22:20.965Z,1.02
2018-12-07T13:24:54.730Z,1.10
2018-12-07T13:27:28.517Z,0.90
2018-12-07T13:30:03.018Z,1.40
2018-12-07T13:32:38.301Z,1.20
2018-12-07T13:35:12.125Z,0.70
2018-12-07T13:37:45.954Z,1.10
2018-12-07T13:40:19.804Z,0.68
2018-12-07T13:42:53.628Z,0.95
2018-12-07T13:45:28.226Z,0.90
2018-12-07T13:48:03.092Z,0.70
2018-12-07T13:50:43.891Z,0.97
2018-12-07T13:53:17.755Z,1.00
2018-12-07T13:55:52.248Z,0.97
2018-12-07T13:58:26.419Z,1.00
2018-12-07T14:01:00.212Z,0.80
2018-12-07T14:03:34.083Z,0.90
2018-12-07T14:06:08.108Z,0.70
2018-12-07T14:08:41.952Z,0.97
2018-12-07T14:11:15.647Z,0.95
2018-12-07T14:13:50.439Z,0.70
2018-12-07T14:16:24.273Z,0.65
2018-12-07T14:18:57.987Z,0.70
2018-12-07T14:21:31.934Z,0.90
2018-12-07T14:24:06.909Z,0.63
2018-12-07T14:26:40.559Z,0.67
2018-12-07T14:29:15.133Z,1.00
2018-12-07T14:34:31.106Z,0.50
2018-12-07T14:39:47.873Z,0.63
2018-12-07T14:42:23.941Z,0.40
2018-12-07T14:47:39.745Z,0.70
2018-12-07T14:50:13.707Z,0.40
2018-12-07T14:52:47.350Z,0.60
2018-12-07T14:58:02.607Z,0.50
2018-12-07T15:00:36.375Z,0.50
2018-12-07T15:03:10.085Z,0.50
2018-12-07T15:05:43.956Z,0.37
2018-12-07T15:08:18.605Z,0.40
2018-12-07T15:16:12.077Z,0.50
2018-12-07T15:18:45.907Z,0.50
2018-12-07T15:21:19.581Z,0.60
2018-12-07T15:26:39.551Z,0.40
2018-12-07T15:29:13.345Z,0.50
2018-12-07T15:31:47.179Z,0.47
2018-12-07T15:37:04.124Z,0.53
2018-12-07T15:39:38.695Z,0.70
2018-12-07T15:42:12.875Z,0.60
2018-12-07T15:50:09.673Z,0.90
2018-12-07T15:52:43.644Z,1.30
2018-12-07T15:55:17.227Z,0.80
2018-12-07T15:57:51.008Z,0.55
2018-12-07T16:03:08.445Z,0.60
2018-12-07T16:05:42.478Z,0.80
2018-12-07T16:08:16.103Z,1.27
2018-12-07T16:10:50.132Z,0.87
2018-12-07T16:13:24.292Z,0.90
2018-12-07T16:15:58.908Z,0.90
2018-12-07T16:18:32.733Z,1.05
2018-12-07T16:21:06.510Z,0.80
2018-12-07T16:23:40.421Z,0.90
2018-12-07T16:26:14.209Z,0.93
2018-12-07T16:28:47.908Z,1.23
2018-12-07T16:34:01.826Z,1.00
2018-12-07T16:36:35.725Z,1.47
2018-12-07T16:39:10.374Z,1.03
2018-12-07T16:41:44.063Z,1.50
2018-12-07T16:46:57.403Z,1.43
2018-12-07T16:49:31.027Z,1.60
2018-12-07T16:52:05.197Z,2.23
2018-12-07T16:57:19.286Z,1.40
2018-12-07T16:59:53.090Z,1.55
2018-12-07T17:02:27.559Z,1.87
2018-12-07T17:05:02.477Z,1.70
2018-12-07T17:07:36.484Z,1.90
2018-12-07T17:10:10.737Z,1.98
2018-12-07T17:12:45.257Z,1.50
2018-12-07T17:15:18.892Z,1.77
2018-12-07T17:17:52.736Z,1.70
2018-12-07T17:20:26.715Z,1.92
2018-12-07T17:23:01.244Z,1.80
2018-12-07T17:25:35.060Z,1.50
2018-12-07T17:28:09.039Z,1.98
2018-12-07T17:36:05.811Z,1.90
2018-12-07T17:38:39.684Z,2.47
2018-12-07T17:41:13.523Z,1.87
2018-12-07T17:43:47.231Z,2.20
2018-12-07T17:46:21.109Z,1.90
2018-12-07T17:48:55.239Z,1.97
2018-12-07T17:54:10.489Z,1.90
2018-12-07T17:56:44.470Z,2.10
2018-12-07T17:59:18.853Z,2.00
2018-12-07T18:01:52.523Z,1.80
2018-12-07T18:04:26.337Z,1.80
2018-12-07T18:07:01.201Z,1.90
2018-12-07T18:09:34.906Z,2.37
2018-12-07T18:12:08.938Z,1.90
2018-12-07T18:14:42.822Z,1.52
2018-12-07T18:17:16.774Z,1.53
2018-12-07T18:19:50.552Z,1.30
2018-12-07T18:25:06.935Z,1.10
2018-12-07T18:33:10.739Z,0.98
2018-12-07T18:35:44.651Z,1.17
2018-12-07T18:38:18.242Z,1.13
2018-12-07T18:40:52.847Z,1.73
2018-12-07T18:43:26.740Z,1.20
2018-12-07T18:46:00.723Z,1.50
2018-12-07T18:48:35.543Z,1.75
2018-12-07T18:51:09.146Z,2.10
2018-12-07T18:53:43.002Z,1.87
2018-12-07T18:56:16.966Z,0.82
2018-12-07T18:58:50.842Z,1.37
2018-12-07T19:01:24.628Z,1.20
2018-12-07T19:03:58.671Z,1.40
2018-12-07T19:06:33.096Z,1.10
2018-12-07T19:09:11.048Z,0.87
2018-12-07T19:11:44.882Z,1.17
2018-12-07T19:16:58.227Z,0.70
2018-12-07T19:19:31.790Z,1.23
2018-12-07T19:22:05.847Z,1.30
2018-12-07T19:24:39.598Z,1.10
2018-12-07T19:29:53.263Z,1.33
2018-12-07T19:32:28.711Z,1.20
2018-12-07T19:37:44.086Z,1.77
2018-12-07T19:40:17.864Z,1.23
2018-12-07T19:42:51.634Z,1.23
2018-12-07T19:45:25.799Z,1.63
2018-12-07T19:47:59.721Z,1.37
2018-12-07T19:50:33.543Z,1.40
2018-12-07T19:53:08.474Z,1.30
2018-12-07T19:55:42.243Z,1.23
2018-12-07T19:58:15.917Z,1.20
2018-12-07T20:03:31.406Z,1.40
2018-12-07T20:06:06.923Z,1.40
2018-12-07T20:08:40.433Z,2.00
2018-12-07T20:11:14.993Z,2.03
2018-12-07T20:13:48.825Z,1.93
2018-12-07T20:16:22.725Z,1.60
2018-12-07T20:18:56.821Z,1.70
2018-12-07T20:21:30.656Z,1.97
2018-12-07T20:24:05.706Z,2.40
2018-12-07T20:26:40.335Z,2.23
2018-12-07T20:31:55.501Z,2.13
2018-12-07T20:34:29.228Z,2.27
2018-12-07T20:37:03.071Z,2.83
2018-12-07T20:39:36.869Z,3.07
2018-12-07T20:42:10.720Z,3.40
2018-12-07T20:44:44.512Z,3.77
2018-12-07T20:47:24.540Z,4.23
2018-12-07T20:49:52.309Z,4.20
2018-12-07T20:52:26.001Z,5.37
2018-12-07T20:55:00.058Z,4.90
2018-12-07T20:57:33.753Z,5.00
2018-12-07T21:00:09.959Z,5.43
2018-12-07T21:02:43.970Z,5.20
2018-12-07T21:09:34.153Z,4.83
2018-12-07T21:13:36.471Z,4.70
2018-12-07T21:19:22.076Z,3.80
2018-12-07T21:21:55.714Z,3.33
2018-12-07T21:24:38.220Z,3.40
2018-12-07T21:27:12.235Z,2.57
2018-12-07T21:32:55.517Z,2.70
2018-12-07T21:35:29.332Z,2.50
2018-12-07T21:38:04.039Z,2.03
2018-12-07T21:40:37.656Z,2.87
2018-12-07T21:43:12.456Z,2.70
2018-12-07T21:45:45.954Z,2.93
2018-12-07T21:48:30.427Z,4.03
2018-12-07T21:54:32.596Z,5.50
2018-12-07T21:57:06.209Z,5.33
2018-12-07T21:59:41.034Z,5.50
2018-12-07T22:04:55.264Z,7.63
2018-12-07T22:07:30.360Z,7.33
2018-12-07T22:10:04.803Z,7.40
2018-12-07T22:12:39.599Z,7.00
2018-12-07T22:15:13.549Z,8.33
2018-12-07T22:20:27.198Z,8.13
2018-12-07T22:23:01.158Z,8.90
2018-12-07T22:25:34.776Z,7.47
2018-12-07T22:28:09.600Z,7.47
2018-12-07T22:30:43.559Z,6.57
2018-12-07T22:33:17.247Z,5.80
2018-12-07T22:35:50.992Z,5.03
2018-12-07T22:38:24.869Z,4.70
2018-12-07T22:40:58.661Z,4.20
2018-12-07T22:43:32.847Z,4.30
2018-12-07T22:46:06.571Z,3.87
2018-12-07T22:48:40.507Z,4.23
2018-12-07T22:51:14.849Z,2.63
2018-12-07T22:53:49.681Z,3.33
2018-12-07T22:56:24.362Z,2.47
2018-12-07T22:58:59.043Z,2.10
2018-12-07T23:01:32.841Z,2.40
2018-12-07T23:04:06.614Z,2.70
2018-12-07T23:06:40.447Z,2.83
2018-12-07T23:09:15.033Z,3.00
2018-12-07T23:11:48.870Z,2.70
2018-12-07T23:14:22.650Z,4.00
2018-12-07T23:16:56.455Z,3.77
2018-12-07T23:19:30.246Z,4.00
2018-12-07T23:22:04.037Z,3.73
2018-12-07T23:24:38.117Z,4.90
2018-12-07T23:27:12.605Z,5.23
2018-12-07T23:29:47.210Z,6.50
2018-12-07T23:32:21.298Z,6.83
2018-12-07T23:34:55.089Z,7.33
2018-12-07T23:37:30.058Z,7.27
2018-12-07T23:40:03.901Z,7.17
2018-12-07T23:42:37.760Z,7.00
2018-12-07T23:45:11.529Z,7.07
2018-12-07T23:47:45.312Z,7.50
2018-12-07T23:50:19.104Z,8.43
2018-12-07T23:52:52.884Z,8.23
2018-12-07T23:55:26.901Z,8.17
2018-12-07T23:58:01.405Z,8.77
